createdAt,value
2017-06-27T00:01:56.864Z,96177.07
2017-06-27T00:04:22.837Z,96169.23
2017-06-27T00:06:48.655Z,96157.86
2017-06-27T00:09:14.505Z,96157.69
2017-06-27T00:11:40.407Z,96159.61
2017-06-27T00:14:06.222Z,96155.64
2017-06-27T00:16:32.089Z,96148.95
2017-06-27T00:18:57.953Z,96144.79
2017-06-27T00:21:23.772Z,96139.31
2017-06-27T00:23:49.615Z,96132.39
2017-06-27T00:26:15.675Z,96123.23
2017-06-27T00:28:41.556Z,96123.16
2017-06-27T00:31:07.368Z,96127.56
2017-06-27T00:33:33.215Z,96097.87
2017-06-27T00:35:59.033Z,96122.01
2017-06-27T00:38:24.871Z,96118.69
2017-06-27T00:40:50.699Z,96120.67
2017-06-27T00:43:16.520Z,96118.77
2017-06-27T00:45:42.418Z,96114.80
2017-06-27T00:48:08.301Z,96116.31
2017-06-27T00:50:34.174Z,96110.78
2017-06-27T00:53:00.043Z,96118.19
2017-06-27T00:55:25.959Z,96121.48
2017-06-27T00:57:52.255Z,96087.10
2017-06-27T01:00:18.099Z,96112.66
2017-06-27T01:02:44.026Z,96114.98
2017-06-27T01:05:09.885Z,96104.66
2017-06-27T01:07:35.719Z,96107.09
2017-06-27T01:10:01.562Z,96103.43
2017-06-27T01:12:27.381Z,96103.97
2017-06-27T01:14:53.254Z,96103.55
2017-06-27T01:17:19.146Z,96105.20
2017-06-27T01:19:44.972Z,96101.55
2017-06-27T01:22:10.829Z,96094.19
2017-06-27T01:24:36.715Z,96098.30
2017-06-27T01:27:02.628Z,96093.95
2017-06-27T01:29:28.509Z,96075.58
2017-06-27T01:31:54.380Z,96119.11
2017-06-27T01:34:20.445Z,96131.34
2017-06-27T01:36:46.346Z,96133.38
2017-06-27T01:39:12.155Z,96143.02
2017-06-27T01:41:38.026Z,96144.34
2017-06-27T01:44:03.857Z,96148.81
2017-06-27T01:46:29.701Z,96146.04
2017-06-27T01:48:55.666Z,96149.57
2017-06-27T01:51:21.492Z,96150.84
2017-06-27T01:53:47.334Z,96151.27
2017-06-27T01:56:13.240Z,96154.28
2017-06-27T01:58:39.087Z,96144.48
2017-06-27T02:01:04.989Z,96144.11
2017-06-27T02:03:30.844Z,96136.58
2017-06-27T02:05:56.753Z,96133.71
2017-06-27T02:08:22.567Z,96140.67
2017-06-27T02:10:48.509Z,96131.25
2017-06-27T02:13:14.443Z,96129.59
2017-06-27T02:15:40.325Z,96131.95
2017-06-27T02:18:06.153Z,96130.12
2017-06-27T02:20:32.071Z,96132.80
2017-06-27T02:22:57.935Z,96098.54
2017-06-27T02:25:23.817Z,96126.92
2017-06-27T02:27:49.737Z,96124.09
2017-06-27T02:30:15.577Z,96092.14
2017-06-27T02:32:41.421Z,96114.21
2017-06-27T02:35:07.277Z,96112.00
2017-06-27T02:37:33.170Z,96118.88
2017-06-27T02:39:59.042Z,96123.58
2017-06-27T02:42:24.934Z,96103.27
2017-06-27T02:44:50.873Z,96104.51
2017-06-27T02:47:16.780Z,96104.69
2017-06-27T02:49:42.701Z,96095.19
2017-06-27T02:52:08.559Z,96060.33
2017-06-27T02:54:34.373Z,96100.66
2017-06-27T02:57:00.337Z,96103.76
2017-06-27T02:59:26.293Z,96101.35
2017-06-27T03:01:52.261Z,96098.39
2017-06-27T03:04:18.070Z,96094.34
2017-06-27T03:06:43.887Z,96098.05
2017-06-27T03:09:09.761Z,96050.77
2017-06-27T03:11:35.596Z,96098.31
2017-06-27T03:14:01.540Z,96097.73
2017-06-27T03:16:27.377Z,96102.67
2017-06-27T03:18:53.209Z,96100.93
2017-06-27T03:21:19.037Z,96097.27
2017-06-27T03:23:44.908Z,96098.33
2017-06-27T03:26:10.809Z,96093.42
2017-06-27T03:28:36.618Z,96097.23
2017-06-27T03:31:02.485Z,96095.64
2017-06-27T03:33:28.344Z,96093.60
2017-06-27T03:35:54.170Z,96088.66
2017-06-27T03:38:19.961Z,96088.02
2017-06-27T03:40:45.823Z,96087.52
2017-06-27T03:43:11.729Z,96086.15
2017-06-27T03:45:37.570Z,96086.31
2017-06-27T03:48:03.386Z,96083.64
2017-06-27T03:50:29.213Z,96080.11
2017-06-27T03:52:55.001Z,96078.80
2017-06-27T03:55:20.827Z,96077.88
2017-06-27T03:57:48.339Z,96073.02
2017-06-27T04:00:14.293Z,96067.17
2017-06-27T04:02:40.118Z,96076.17
2017-06-27T04:05:05.985Z,96044.70
2017-06-27T04:07:31.797Z,96068.98
2017-06-27T04:09:57.661Z,96039.38
2017-06-27T04:12:23.498Z,96066.20
2017-06-27T04:14:49.310Z,96068.22
2017-06-27T04:17:15.120Z,96071.38
2017-06-27T04:19:40.970Z,96073.97
2017-06-27T04:22:06.876Z,96074.54
2017-06-27T04:24:32.822Z,96069.92
2017-06-27T04:26:58.741Z,96077.07
2017-06-27T04:29:24.530Z,96067.28
2017-06-27T04:31:50.397Z,96062.02
2017-06-27T04:34:16.185Z,96030.16
2017-06-27T04:36:42.029Z,96049.86
2017-06-27T04:39:07.849Z,96031.63
2017-06-27T04:41:33.649Z,96042.77
2017-06-27T04:43:59.497Z,96047.32
2017-06-27T04:46:40.325Z,96062.95
2017-06-27T04:49:06.258Z,96058.47
2017-06-27T04:51:32.090Z,96029.06
2017-06-27T04:53:57.986Z,96047.91
2017-06-27T04:56:23.797Z,96048.16
2017-06-27T04:58:49.665Z,96042.87
2017-06-27T05:01:15.629Z,96041.40
2017-06-27T05:03:41.422Z,96041.64
2017-06-27T05:06:07.280Z,96039.39
2017-06-27T05:08:33.127Z,96043.26
2017-06-27T05:10:59.115Z,96036.02
2017-06-27T05:13:24.960Z,96032.46
2017-06-27T05:15:50.805Z,96023.59
2017-06-27T05:18:16.737Z,96032.08
2017-06-27T05:20:42.525Z,96029.29
2017-06-27T05:23:08.441Z,96020.42
2017-06-27T05:25:34.338Z,96025.66
2017-06-27T05:28:00.173Z,96021.06
2017-06-27T05:30:26.251Z,95999.34
2017-06-27T05:32:52.053Z,96010.08
2017-06-27T05:35:17.867Z,96014.30
2017-06-27T05:37:43.706Z,96014.50
2017-06-27T05:40:09.540Z,96017.78
2017-06-27T05:42:35.341Z,96010.94
2017-06-27T05:45:01.194Z,96012.43
2017-06-27T05:47:27.041Z,95997.61
2017-06-27T05:49:52.854Z,95999.59
2017-06-27T05:52:18.850Z,95988.77
2017-06-27T05:54:44.693Z,95987.55
2017-06-27T05:57:10.504Z,95989.61
2017-06-27T05:59:36.537Z,95998.27
2017-06-27T06:02:02.470Z,95998.92
2017-06-27T06:04:28.350Z,95999.27
2017-06-27T06:06:54.210Z,96000.42
2017-06-27T06:09:20.021Z,96003.27
2017-06-27T06:11:45.999Z,96005.69
2017-06-27T06:14:11.861Z,96005.78
2017-06-27T06:16:37.760Z,96009.96
2017-06-27T06:19:03.626Z,95998.55
2017-06-27T06:21:29.444Z,96021.73
2017-06-27T06:23:55.233Z,95984.73
2017-06-27T06:26:21.109Z,96027.28
2017-06-27T06:28:46.950Z,96022.68
2017-06-27T06:31:12.745Z,96022.61
2017-06-27T06:33:38.578Z,96024.17
2017-06-27T06:36:04.414Z,96021.80
2017-06-27T06:38:30.213Z,96023.45
2017-06-27T06:40:56.039Z,96017.25
2017-06-27T06:43:22.053Z,96028.73
2017-06-27T06:45:47.901Z,96023.88
2017-06-27T06:48:13.806Z,96027.42
2017-06-27T06:50:39.605Z,96023.27
2017-06-27T06:53:05.489Z,96022.70
2017-06-27T06:55:31.293Z,95994.89
2017-06-27T06:57:57.113Z,96019.08
2017-06-27T07:00:22.984Z,96022.39
2017-06-27T07:02:48.815Z,96022.31
2017-06-27T07:05:14.614Z,96008.66
2017-06-27T07:07:40.477Z,96010.23
2017-06-27T07:10:06.470Z,96012.95
2017-06-27T07:12:32.318Z,96013.78
2017-06-27T07:14:58.224Z,96012.51
2017-06-27T07:17:24.172Z,96006.34
2017-06-27T07:19:50.170Z,96000.83
2017-06-27T07:22:15.980Z,95995.31
2017-06-27T07:24:41.814Z,96003.54
2017-06-27T07:27:07.718Z,95999.30
2017-06-27T07:29:33.590Z,96001.13
2017-06-27T07:31:59.407Z,95990.70
2017-06-27T07:34:25.197Z,95983.80
2017-06-27T07:36:51.034Z,95987.13
2017-06-27T07:39:16.919Z,95992.02
2017-06-27T07:41:42.739Z,95992.59
2017-06-27T07:44:08.574Z,95995.41
2017-06-27T07:46:34.487Z,95994.27
2017-06-27T07:49:00.298Z,95919.45
2017-06-27T07:51:26.189Z,95992.60
2017-06-27T07:53:52.016Z,95985.26
2017-06-27T07:56:17.837Z,95988.66
2017-06-27T07:58:43.678Z,95988.11
2017-06-27T08:01:09.482Z,95984.34
2017-06-27T08:03:35.290Z,95983.39
2017-06-27T08:06:01.128Z,95980.53
2017-06-27T08:08:26.982Z,95986.12
2017-06-27T08:10:52.879Z,95986.02
2017-06-27T08:13:18.731Z,95985.69
2017-06-27T08:15:44.610Z,95982.66
2017-06-27T08:18:10.453Z,95976.30
2017-06-27T08:20:36.333Z,95968.75
2017-06-27T08:23:02.177Z,95962.94
2017-06-27T08:25:28.000Z,95961.22
2017-06-27T08:27:53.869Z,95945.05
2017-06-27T08:30:19.757Z,95961.66
2017-06-27T08:32:45.577Z,95959.00
2017-06-27T08:35:11.414Z,95944.82
2017-06-27T08:37:37.318Z,95952.05
2017-06-27T08:40:03.127Z,95953.77
2017-06-27T08:42:28.945Z,95944.09
2017-06-27T08:44:54.870Z,95949.42
2017-06-27T08:47:20.776Z,95953.21
2017-06-27T08:49:46.587Z,95954.02
2017-06-27T08:52:12.495Z,95953.70
2017-06-27T08:54:38.327Z,95951.16
2017-06-27T08:57:04.139Z,95954.13
2017-06-27T08:59:30.018Z,95952.98
2017-06-27T09:01:55.860Z,95950.16
2017-06-27T09:04:21.703Z,95944.05
2017-06-27T09:06:47.541Z,95951.55
2017-06-27T09:09:13.383Z,95954.64
2017-06-27T09:11:39.178Z,95925.66
2017-06-27T09:14:05.062Z,95954.11
2017-06-27T09:16:30.866Z,95951.75
2017-06-27T09:18:56.673Z,95950.53
2017-06-27T09:21:22.547Z,95949.78
2017-06-27T09:23:48.478Z,95958.91
2017-06-27T09:26:14.331Z,95952.59
2017-06-27T09:28:40.125Z,95950.32
2017-06-27T09:31:06.089Z,95950.89
2017-06-27T09:33:32.061Z,95947.05
2017-06-27T09:35:57.966Z,95944.06
2017-06-27T09:38:30.709Z,95951.87
2017-06-27T09:40:56.631Z,95949.00
2017-06-27T09:43:22.431Z,95942.28
2017-06-27T09:45:48.262Z,95940.89
2017-06-27T09:48:14.127Z,95933.00
2017-06-27T09:50:40.170Z,95950.76
2017-06-27T09:53:06.052Z,95947.95
2017-06-27T09:55:31.976Z,95933.61
2017-06-27T09:57:58.040Z,95942.07
2017-06-27T10:00:24.073Z,95934.14
2017-06-27T10:02:49.901Z,95934.78
2017-06-27T10:05:15.875Z,95934.92
2017-06-27T10:07:41.833Z,95933.92
2017-06-27T10:10:07.720Z,95931.13
2017-06-27T10:12:33.736Z,95926.58
2017-06-27T10:14:59.615Z,95916.91
2017-06-27T10:17:25.526Z,95926.43
2017-06-27T10:19:52.156Z,95920.42
2017-06-27T10:22:18.055Z,95914.91
2017-06-27T10:24:43.907Z,95913.03
2017-06-27T10:27:09.809Z,95910.95
2017-06-27T10:29:35.642Z,95905.12
2017-06-27T10:32:01.452Z,95905.48
2017-06-27T10:34:27.404Z,95901.58
2017-06-27T10:36:53.212Z,95898.16
2017-06-27T10:39:19.010Z,95892.47
2017-06-27T10:41:44.883Z,95896.55
2017-06-27T10:44:10.706Z,95882.49
2017-06-27T10:46:36.521Z,95880.74
2017-06-27T10:49:02.369Z,95885.89
2017-06-27T10:51:28.276Z,95879.52
2017-06-27T10:53:54.099Z,95856.73
2017-06-27T10:56:19.940Z,95862.02
2017-06-27T10:58:45.794Z,95876.36
2017-06-27T11:01:11.611Z,95879.09
2017-06-27T11:03:37.429Z,95873.44
2017-06-27T11:06:03.286Z,95870.09
2017-06-27T11:08:29.111Z,95863.30
2017-06-27T11:10:54.998Z,95867.41
2017-06-27T11:13:20.841Z,95831.84
2017-06-27T11:15:46.748Z,95856.38
2017-06-27T11:18:12.845Z,95860.26
2017-06-27T11:20:38.849Z,95852.30
2017-06-27T11:23:04.764Z,95846.99
2017-06-27T11:25:30.600Z,95839.85
2017-06-27T11:27:56.501Z,95831.75
2017-06-27T11:30:22.435Z,95832.66
2017-06-27T11:32:48.260Z,95822.36
2017-06-27T11:35:14.156Z,95826.09
2017-06-27T11:37:40.057Z,95821.53
2017-06-27T11:40:05.881Z,95817.61
2017-06-27T11:42:31.769Z,95785.63
2017-06-27T11:44:57.821Z,95808.22
2017-06-27T11:47:23.815Z,95807.84
2017-06-27T11:49:49.769Z,95809.89
2017-06-27T11:52:15.605Z,95794.27
2017-06-27T11:54:41.459Z,95807.83
2017-06-27T11:57:07.295Z,95794.27
2017-06-27T11:59:33.448Z,95797.22
2017-06-27T12:02:09.564Z,95790.23
2017-06-27T12:04:35.510Z,95786.53
2017-06-27T12:07:05.422Z,95778.92
2017-06-27T12:09:31.283Z,95770.11
2017-06-27T12:11:57.159Z,95763.42
2017-06-27T12:14:23.051Z,95758.16
2017-06-27T12:16:48.947Z,95771.72
2017-06-27T12:19:14.776Z,95766.61
2017-06-27T12:21:41.605Z,95756.58
2017-06-27T12:24:07.419Z,95753.71
2017-06-27T12:26:33.328Z,95766.03
2017-06-27T12:28:59.289Z,95757.61
2017-06-27T12:31:40.110Z,95748.52
2017-06-27T12:34:06.106Z,95746.63
2017-06-27T12:36:32.024Z,95746.59
2017-06-27T12:38:57.916Z,95748.97
2017-06-27T12:41:23.885Z,95740.93
2017-06-27T12:43:49.724Z,95718.56
2017-06-27T12:46:15.563Z,95739.02
2017-06-27T12:48:41.429Z,95734.61
2017-06-27T12:51:07.415Z,95722.25
2017-06-27T12:53:33.307Z,95725.27
2017-06-27T12:55:59.260Z,95725.34
2017-06-27T12:58:25.136Z,95727.01
2017-06-27T13:00:51.122Z,95715.70
2017-06-27T13:03:16.968Z,95723.89
2017-06-27T13:05:42.842Z,95724.11
2017-06-27T13:08:08.763Z,95724.95
2017-06-27T13:10:34.610Z,95715.73
2017-06-27T13:13:00.468Z,95707.12
2017-06-27T13:15:26.440Z,95713.06
2017-06-27T13:17:52.344Z,95713.84
2017-06-27T13:20:18.497Z,95712.75
2017-06-27T13:22:44.407Z,95704.70
2017-06-27T13:25:10.301Z,95702.29
2017-06-27T13:27:36.143Z,95704.48
2017-06-27T13:30:02.026Z,95703.98
2017-06-27T13:32:27.949Z,95704.52
2017-06-27T13:34:53.840Z,95705.63
2017-06-27T13:37:19.928Z,95697.47
2017-06-27T13:39:45.823Z,95706.41
2017-06-27T13:42:11.715Z,95692.77
2017-06-27T13:44:37.739Z,95696.30
2017-06-27T13:47:03.568Z,95700.63
2017-06-27T13:49:29.501Z,95687.55
2017-06-27T13:51:55.397Z,95674.06
2017-06-27T13:54:21.364Z,95691.20
2017-06-27T13:56:47.219Z,95670.13
2017-06-27T13:59:13.606Z,95675.56
2017-06-27T14:01:39.529Z,95648.05
2017-06-27T14:04:06.321Z,95664.56
2017-06-27T14:06:32.819Z,95664.48
2017-06-27T14:08:58.720Z,95675.04
2017-06-27T14:11:24.592Z,95668.33
2017-06-27T14:13:50.684Z,95662.34
2017-06-27T14:16:16.555Z,95655.39
2017-06-27T14:18:42.403Z,95651.42
2017-06-27T14:21:08.358Z,95629.84
2017-06-27T14:23:34.242Z,95652.41
2017-06-27T14:26:00.085Z,95640.44
2017-06-27T14:28:33.087Z,95642.94
2017-06-27T14:30:58.953Z,95651.64
2017-06-27T14:33:24.793Z,95643.18
2017-06-27T14:35:51.120Z,95641.34
2017-06-27T14:38:16.998Z,95621.98
2017-06-27T14:40:42.875Z,95624.39
2017-06-27T14:43:08.789Z,95635.03
2017-06-27T14:45:34.688Z,95634.44
2017-06-27T14:48:01.104Z,95626.51
2017-06-27T14:50:27.064Z,95623.71
2017-06-27T14:52:52.943Z,95588.45
2017-06-27T14:55:18.771Z,95624.02
2017-06-27T14:57:44.603Z,95612.83
2017-06-27T15:00:10.568Z,95612.20
2017-06-27T15:02:36.406Z,95622.80
2017-06-27T15:05:02.265Z,95617.58
2017-06-27T15:07:28.152Z,95615.52
2017-06-27T15:09:54.094Z,95610.56
2017-06-27T15:12:19.967Z,95603.45
2017-06-27T15:14:45.819Z,95602.18
2017-06-27T15:17:11.798Z,95586.55
2017-06-27T15:19:37.687Z,95604.84
2017-06-27T15:22:03.593Z,95603.69
2017-06-27T15:24:29.456Z,95600.75
2017-06-27T15:26:55.416Z,95596.91
2017-06-27T15:29:21.258Z,95603.77
2017-06-27T15:31:47.200Z,95601.16
2017-06-27T15:34:13.072Z,95595.61
2017-06-27T15:36:38.969Z,95591.17
2017-06-27T15:39:04.863Z,95601.03
2017-06-27T15:41:30.692Z,95597.19
2017-06-27T15:43:56.602Z,95595.16
2017-06-27T15:46:22.544Z,95591.03
2017-06-27T15:48:48.396Z,95593.05
2017-06-27T15:51:14.316Z,95596.69
2017-06-27T15:53:40.157Z,95604.53
2017-06-27T15:56:05.983Z,95596.59
2017-06-27T15:58:32.054Z,95589.17
2017-06-27T16:00:57.955Z,95580.31
2017-06-27T16:03:24.600Z,95572.97
2017-06-27T16:05:50.521Z,95566.47
2017-06-27T16:08:16.361Z,95566.34
2017-06-27T16:10:42.337Z,95556.23
2017-06-27T16:13:08.230Z,95559.74
2017-06-27T16:15:34.101Z,95559.51
2017-06-27T16:18:00.023Z,95544.84
2017-06-27T16:20:26.016Z,95552.66
2017-06-27T16:22:52.031Z,95544.98
2017-06-27T16:25:17.891Z,95542.65
2017-06-27T16:27:43.822Z,95533.25
2017-06-27T16:30:09.707Z,95535.28
2017-06-27T16:32:35.664Z,95530.27
2017-06-27T16:35:01.516Z,95540.05
2017-06-27T16:37:27.383Z,95536.95
2017-06-27T16:39:53.248Z,95546.41
2017-06-27T16:42:19.128Z,95545.85
2017-06-27T16:44:45.052Z,95525.52
2017-06-27T16:47:10.900Z,95536.83
2017-06-27T16:49:36.833Z,95542.67
2017-06-27T16:52:02.683Z,95538.89
2017-06-27T16:54:28.551Z,95550.50
2017-06-27T16:56:54.422Z,95551.08
2017-06-27T16:59:20.273Z,95555.06
2017-06-27T17:01:46.100Z,95552.69
2017-06-27T17:04:11.992Z,95557.13
2017-06-27T17:06:37.932Z,95550.01
2017-06-27T17:09:03.829Z,95542.81
2017-06-27T17:11:29.911Z,95536.17
2017-06-27T17:13:55.916Z,95531.06
2017-06-27T17:16:21.940Z,95535.80
2017-06-27T17:18:47.810Z,95528.81
2017-06-27T17:21:13.765Z,95529.02
2017-06-27T17:23:39.730Z,95529.02
2017-06-27T17:26:05.581Z,95527.58
2017-06-27T17:28:31.443Z,95530.34
2017-06-27T17:30:57.332Z,95526.14
2017-06-27T17:33:23.174Z,95523.48
2017-06-27T17:35:49.053Z,95496.69
2017-06-27T17:38:14.881Z,95519.69
2017-06-27T17:40:40.885Z,95521.77
2017-06-27T17:43:06.760Z,95518.27
2017-06-27T17:45:32.647Z,95513.35
2017-06-27T17:47:58.463Z,95506.59
2017-06-27T17:50:24.336Z,95499.45
2017-06-27T17:52:50.151Z,95502.48
2017-06-27T17:55:15.982Z,95506.78
2017-06-27T17:57:41.877Z,95500.25
2017-06-27T18:00:07.753Z,95489.41
2017-06-27T18:02:33.577Z,95488.08
2017-06-27T18:04:59.508Z,95487.27
2017-06-27T18:07:25.355Z,95479.31
2017-06-27T18:09:51.537Z,95473.27
2017-06-27T18:12:17.605Z,95477.14
2017-06-27T18:14:43.444Z,95471.23
2017-06-27T18:17:09.323Z,95465.39
2017-06-27T18:19:35.147Z,95469.36
2017-06-27T18:22:01.117Z,95460.95
2017-06-27T18:24:26.964Z,95418.12
2017-06-27T18:26:52.800Z,95445.41
2017-06-27T18:29:18.734Z,95444.19
2017-06-27T18:31:44.560Z,95442.68
2017-06-27T18:34:10.477Z,95437.17
2017-06-27T18:36:36.346Z,95435.68
2017-06-27T18:39:02.261Z,95437.84
2017-06-27T18:41:28.182Z,95434.97
2017-06-27T18:43:54.133Z,95443.45
2017-06-27T18:46:20.096Z,95428.20
2017-06-27T18:48:45.964Z,95463.58
2017-06-27T18:51:11.790Z,95428.89
2017-06-27T18:53:37.650Z,95461.84
2017-06-27T18:56:03.531Z,95453.38
2017-06-27T18:58:29.408Z,95447.20
2017-06-27T19:00:55.261Z,95420.20
2017-06-27T19:03:21.095Z,95401.75
2017-06-27T19:05:47.064Z,95433.24
2017-06-27T19:08:13.057Z,95434.22
2017-06-27T19:10:39.109Z,95441.59
2017-06-27T19:13:05.169Z,95436.94
2017-06-27T19:15:31.097Z,95422.53
2017-06-27T19:17:56.993Z,95425.64
2017-06-27T19:20:22.908Z,95427.84
2017-06-27T19:22:48.775Z,95424.39
2017-06-27T19:25:14.683Z,95434.09
2017-06-27T19:27:40.543Z,95431.43
2017-06-27T19:30:06.400Z,95411.58
2017-06-27T19:32:32.218Z,95417.52
2017-06-27T19:34:58.105Z,95415.08
2017-06-27T19:37:23.940Z,95421.85
2017-06-27T19:39:49.940Z,95412.13
2017-06-27T19:42:15.818Z,95432.61
2017-06-27T19:44:41.771Z,95419.20
2017-06-27T19:47:07.771Z,95435.20
2017-06-27T19:49:33.625Z,95435.09
2017-06-27T19:51:59.512Z,95423.54
2017-06-27T19:54:25.391Z,95416.61
2017-06-27T19:56:51.255Z,95438.27
2017-06-27T19:59:17.105Z,95435.30
2017-06-27T20:01:43.049Z,95436.20
2017-06-27T20:04:08.940Z,95434.55
2017-06-27T20:06:34.787Z,95410.13
2017-06-27T20:09:00.766Z,95430.11
2017-06-27T20:11:26.771Z,95425.86
2017-06-27T20:13:52.724Z,95427.63
2017-06-27T20:16:18.622Z,95405.58
2017-06-27T20:18:44.587Z,95414.78
2017-06-27T20:21:10.434Z,95422.84
2017-06-27T20:23:36.617Z,95421.93
2017-06-27T20:26:02.553Z,95425.46
2017-06-27T20:28:28.516Z,95390.72
2017-06-27T20:30:54.409Z,95410.04
2017-06-27T20:33:20.292Z,95405.95
2017-06-27T20:35:46.279Z,95410.59
2017-06-27T20:38:12.226Z,95403.23
2017-06-27T20:40:38.221Z,95418.92
2017-06-27T20:43:04.846Z,95408.81
2017-06-27T20:45:30.753Z,95405.75
2017-06-27T20:47:56.708Z,95418.80
2017-06-27T20:50:22.725Z,95411.45
2017-06-27T20:52:48.678Z,95409.43
2017-06-27T20:55:14.592Z,95409.91
2017-06-27T20:57:40.461Z,95416.31
2017-06-27T21:00:06.516Z,95407.13
2017-06-27T21:02:32.369Z,95400.63
2017-06-27T21:04:58.380Z,95396.52
2017-06-27T21:07:24.326Z,95391.80
2017-06-27T21:09:50.200Z,95389.85
2017-06-27T21:12:16.268Z,95391.45
2017-06-27T21:14:42.225Z,95396.77
2017-06-27T21:17:08.208Z,95391.05
2017-06-27T21:19:34.168Z,95386.93
2017-06-27T21:22:00.053Z,95383.70
2017-06-27T21:24:26.048Z,95380.58
2017-06-27T21:26:51.975Z,95366.86
2017-06-27T21:29:18.022Z,95332.08
2017-06-27T21:31:43.876Z,95371.11
2017-06-27T21:34:09.768Z,95373.86
2017-06-27T21:36:35.672Z,95369.30
2017-06-27T21:39:01.509Z,95365.47
2017-06-27T21:41:27.404Z,95359.20
2017-06-27T21:43:53.425Z,95346.17
2017-06-27T21:46:19.344Z,95346.44
2017-06-27T21:48:45.227Z,95345.69
2017-06-27T21:51:11.091Z,95345.66
2017-06-27T21:53:37.032Z,95337.77
2017-06-27T21:56:02.885Z,95331.41
2017-06-27T21:58:28.965Z,95327.95
2017-06-27T22:00:54.872Z,95322.20
2017-06-27T22:03:20.811Z,95319.79
2017-06-27T22:05:46.716Z,95324.40
2017-06-27T22:08:12.686Z,95325.83
2017-06-27T22:10:38.527Z,95305.91
2017-06-27T22:13:04.382Z,95321.55
2017-06-27T22:15:30.317Z,95321.87
2017-06-27T22:17:56.236Z,95323.84
2017-06-27T22:20:22.119Z,95322.47
2017-06-27T22:22:48.178Z,95317.18
2017-06-27T22:25:14.091Z,95325.64
2017-06-27T22:27:40.064Z,95323.80
2017-06-27T22:30:05.929Z,95336.31
2017-06-27T22:32:31.764Z,95319.69
2017-06-27T22:34:57.627Z,95313.65
2017-06-27T22:37:23.509Z,95306.78
2017-06-27T22:39:49.408Z,95311.80
2017-06-27T22:42:15.322Z,95311.42
2017-06-27T22:44:41.268Z,95303.74
2017-06-27T22:47:07.107Z,95300.02
2017-06-27T22:49:32.984Z,95284.13
2017-06-27T22:51:58.908Z,95277.80
2017-06-27T22:54:24.831Z,95271.46
2017-06-27T22:56:50.827Z,95277.93
2017-06-27T22:59:16.782Z,95274.50
2017-06-27T23:01:42.616Z,95240.42
2017-06-27T23:04:08.503Z,95268.67
2017-06-27T23:06:34.441Z,95269.52
2017-06-27T23:09:00.332Z,95272.20
2017-06-27T23:11:26.277Z,95273.13
2017-06-27T23:13:52.125Z,95268.58
2017-06-27T23:16:18.013Z,95253.48
2017-06-27T23:18:44.007Z,95262.12
2017-06-27T23:21:09.869Z,95260.58
2017-06-27T23:23:35.786Z,95268.02
2017-06-27T23:26:02.493Z,95258.68
2017-06-27T23:28:28.528Z,95259.31
2017-06-27T23:30:54.478Z,95257.55
2017-06-27T23:33:20.340Z,95265.40
2017-06-27T23:35:53.127Z,95264.70
2017-06-27T23:38:19.104Z,95264.56
2017-06-27T23:40:44.981Z,95265.89
2017-06-27T23:43:11.017Z,95260.81
2017-06-27T23:45:37.000Z,95269.66
2017-06-27T23:48:02.846Z,95271.50
2017-06-27T23:50:28.730Z,95273.59
2017-06-27T23:52:54.621Z,95246.27
2017-06-27T23:55:20.451Z,95266.46
2017-06-27T23:57:48.578Z,95257.30
